Terminal Aerodrome Forecast
Issued by NWS

Home | Current Version | Previous Version | Text Only | Print | Product List | Glossary On
Versions: 1 2 3 4 5 6 7 8 9 10 11 12 13 14 15 16 17
000
FTUS46 KLOX 231146
TAFBUR
TAF
KBUR 231146Z 2312/2412 VRB03KT P6SM SCT060
     FM231900 17010KT P6SM BKN035
     FM240300 17005KT P6SM BKN050=

USA.gov is the U.S. government's official web portal to all federal, state and local government web resources and services.